Time;durP1;ratioP1;P1;durP2;ratioP2;P2;SDS_P1;SDS_P2;PMS_P1;PMS_P2;Temp;Humidity;BMP_temperature;BMP_pressure;BME280_temperature;BME280_humidity;BME280_pressure;Samples;Min_cycle;Max_cycle;Signal;HPM_P1;HPM_P2
2022/03/23 00:00:19;;;;;;;21.70;9.10;;;;;;;3.32;64.96;102483.34;5979644;29;20039;-71
2022/03/23 00:03:15;;;;;;;23.70;8.83;;;;;;;3.22;64.20;102483.72;5982771;29;20031;-74
2022/03/23 00:06:13;;;;;;;22.10;9.73;;;;;;;3.36;63.78;102479.72;5980135;28;20039;-71
2022/03/23 00:09:08;;;;;;;20.27;8.90;;;;;;;2.67;64.84;102476.94;5983057;28;20043;-72
2022/03/23 00:12:04;;;;;;;20.08;8.60;;;;;;;3.28;67.56;102476.50;5981986;29;20043;-74
2022/03/23 00:14:59;;;;;;;19.20;8.48;;;;;;;3.08;64.68;102473.75;5992593;28;20378;-73
2022/03/23 00:17:54;;;;;;;26.40;9.80;;;;;;;2.77;65.36;102475.75;6006058;28;20371;-72
2022/03/23 00:20:50;;;;;;;17.73;7.90;;;;;;;2.96;65.78;102463.72;5983780;28;20042;-71
2022/03/23 00:23:45;;;;;;;19.95;8.05;;;;;;;3.11;66.02;102473.63;5980914;29;20031;-73
2022/03/23 00:26:40;;;;;;;28.00;10.43;;;;;;;3.21;64.93;102472.38;5982323;29;20047;-73
2022/03/23 00:29:36;;;;;;;23.03;10.20;;;;;;;2.94;65.93;102478.59;5981274;29;20390;-71
2022/03/23 00:32:31;;;;;;;25.37;9.67;;;;;;;3.20;65.24;102470.69;5981725;29;20046;-73
2022/03/23 00:35:27;;;;;;;26.60;10.45;;;;;;;2.99;64.43;102474.91;5986476;28;20035;-71
2022/03/23 00:38:22;;;;;;;24.27;9.37;;;;;;;3.00;63.86;102466.16;5981465;29;20094;-72
2022/03/23 00:41:17;;;;;;;22.13;8.57;;;;;;;2.84;64.57;102469.38;5979329;29;20035;-74
2022/03/23 00:44:12;;;;;;;24.37;10.07;;;;;;;3.00;62.32;102460.06;5980555;29;20386;-72
2022/03/23 00:47:08;;;;;;;29.13;10.20;;;;;;;3.42;64.21;102474.25;5972591;29;20507;-71
2022/03/23 00:50:04;;;;;;;27.20;10.57;;;;;;;3.14;62.52;102459.56;5972552;29;20135;-72
2022/03/23 00:53:00;;;;;;;28.73;10.57;;;;;;;3.44;65.36;102469.78;5980893;29;20356;-74
2022/03/23 00:55:55;;;;;;;20.95;8.55;;;;;;;3.42;64.05;102469.00;5979364;29;20031;-74
2022/03/23 00:58:50;;;;;;;27.80;9.73;;;;;;;2.87;64.25;102466.66;5980311;29;20462;-71
2022/03/23 01:01:45;;;;;;;23.37;9.83;;;;;;;2.45;65.79;102476.81;5984436;28;20062;-72
2022/03/23 01:04:41;;;;;;;27.20;10.17;;;;;;;2.92;65.09;102472.56;5998751;28;20062;-70
2022/03/23 01:07:36;;;;;;;23.30;10.15;;;;;;;2.81;65.56;102466.84;5981764;29;20070;-72
2022/03/23 01:10:34;;;;;;;24.00;9.80;;;;;;;2.74;65.54;102468.00;5980228;29;20035;-72
2022/03/23 01:13:29;;;;;;;21.17;9.57;;;;;;;2.16;66.13;102464.69;5979570;29;20058;-70
2022/03/23 01:16:24;;;;;;;26.80;10.23;;;;;;;2.13;67.21;102472.63;5974654;28;20368;-71
2022/03/23 01:19:25;;;;;;;21.40;8.40;;;;;;;2.78;69.28;102465.19;5981783;29;20042;-73
2022/03/23 01:22:20;;;;;;;23.77;9.15;;;;;;;2.88;65.88;102455.28;5978687;29;20122;-70
2022/03/23 01:25:16;;;;;;;21.63;8.53;;;;;;;3.00;66.93;102460.94;5981100;29;20027;-72
2022/03/23 01:28:12;;;;;;;24.75;9.27;;;;;;;2.33;65.63;102461.53;5974409;28;20029;-72
2022/03/23 01:31:08;;;;;;;22.40;10.23;;;;;;;2.44;67.48;102469.88;5980499;29;20039;-70
2022/03/23 01:34:03;;;;;;;22.88;9.55;;;;;;;2.82;68.19;102460.72;5978524;28;20275;-71
2022/03/23 01:36:58;;;;;;;22.50;9.97;;;;;;;3.04;67.18;102460.81;5969711;29;20027;-71
2022/03/23 01:39:54;;;;;;;21.57;8.97;;;;;;;2.52;66.47;102467.88;5980238;28;20275;-73
2022/03/23 01:42:49;;;;;;;21.67;9.47;;;;;;;2.13;68.30;102470.03;5983936;28;20507;-70
2022/03/23 01:45:44;;;;;;;21.27;8.03;;;;;;;2.09;67.65;102470.19;5979444;29;20082;-70
2022/03/23 01:48:40;;;;;;;23.37;9.73;;;;;;;1.59;68.54;102471.72;5980921;29;20271;-71
2022/03/23 01:51:35;;;;;;;27.80;8.70;;;;;;;2.03;70.02;102462.53;5989290;28;20085;-71
2022/03/23 01:54:30;;;;;;;25.47;8.63;;;;;;;1.98;69.10;102460.06;5995062;28;20034;-73
2022/03/23 01:57:26;;;;;;;24.20;9.00;;;;;;;2.27;70.45;102452.13;5984841;28;20043;-71
2022/03/23 02:00:21;;;;;;;22.17;8.80;;;;;;;2.48;68.54;102465.38;5977986;28;20035;-73
2022/03/23 02:03:17;;;;;;;21.30;9.13;;;;;;;2.37;69.38;102453.53;5977385;29;20113;-72
2022/03/23 02:06:12;;;;;;;19.80;8.48;;;;;;;2.05;69.30;102458.94;5979038;28;20038;-71
2022/03/23 02:09:07;;;;;;;20.57;9.10;;;;;;;1.99;70.36;102461.75;5986960;28;20050;-70
2022/03/23 02:12:05;;;;;;;23.53;9.60;;;;;;;1.66;70.70;102465.41;5991408;28;20031;-72
2022/03/23 02:15:10;;;;;;;21.65;8.27;;;;;;;2.18;70.10;102444.56;5980147;29;20024;-71
2022/03/23 02:18:06;;;;;;;20.33;7.95;;;;;;;1.91;69.72;102444.59;5980042;29;20042;-72
2022/03/23 02:21:02;;;;;;;24.30;8.35;;;;;;;2.09;70.98;102447.47;5979484;29;20043;-69
2022/03/23 02:23:57;;;;;;;21.75;9.13;;;;;;;2.04;69.90;102445.94;5969943;29;20115;-71
2022/03/23 02:26:53;;;;;;;22.63;8.73;;;;;;;2.32;70.01;102450.19;5978261;29;20394;-72
2022/03/23 02:29:49;;;;;;;18.45;8.43;;;;;;;2.02;69.74;102438.13;5977289;29;20031;-70
2022/03/23 02:32:45;;;;;;;26.00;9.45;;;;;;;1.92;70.42;102449.78;5979243;28;20075;-72
2022/03/23 02:35:40;;;;;;;20.63;8.18;;;;;;;2.04;70.00;102438.91;5992160;28;20042;-70
2022/03/23 02:38:35;;;;;;;20.30;9.37;;;;;;;1.91;69.52;102437.59;5978953;29;20386;-73
2022/03/23 02:41:31;;;;;;;23.77;8.93;;;;;;;2.00;70.24;102426.84;5971532;29;20093;-71
2022/03/23 02:44:26;;;;;;;22.92;9.55;;;;;;;1.77;70.05;102435.41;5974898;29;20042;-71
2022/03/23 02:47:22;;;;;;;24.75;9.32;;;;;;;1.91;71.31;102450.69;5976185;29;20525;-70
2022/03/23 02:50:18;;;;;;;21.73;9.20;;;;;;;1.77;70.77;102442.41;5977485;29;20051;-72
2022/03/23 03:03:04;;;;;;;33.00;9.52;;;;;;;1.82;70.63;102443.13;5962150;29;20443;-71
2022/03/23 03:06:02;;;;;;;18.83;7.63;;;;;;;1.75;71.58;102442.47;5981695;28;20027;-71
2022/03/23 03:08:58;;;;;;;21.17;8.45;;;;;;;1.58;71.39;102438.63;5976667;29;20176;-71
2022/03/23 03:11:53;;;;;;;19.27;8.93;;;;;;;1.53;70.38;102440.53;5976466;28;20549;-72
2022/03/23 03:14:48;;;;;;;24.07;9.07;;;;;;;1.40;71.87;102444.41;5976690;29;20109;-72
2022/03/23 03:17:44;;;;;;;23.70;9.27;;;;;;;1.83;71.69;102444.84;5974567;29;20035;-72
2022/03/23 03:20:39;;;;;;;23.60;8.27;;;;;;;1.45;71.22;102450.38;5974861;29;20443;-70
2022/03/23 03:23:36;;;;;;;23.63;9.45;;;;;;;1.71;71.62;102440.81;5981925;28;20039;-70
2022/03/23 03:26:32;;;;;;;19.77;7.78;;;;;;;1.62;71.82;102450.72;5940683;29;1100556;-72
2022/03/23 03:29:27;;;;;;;22.98;9.13;;;;;;;1.59;71.18;102450.81;5968585;29;20044;-71
2022/03/23 03:32:22;;;;;;;20.40;8.73;;;;;;;1.44;70.75;102448.66;5978070;28;20505;-70
2022/03/23 03:35:17;;;;;;;21.83;8.83;;;;;;;1.10;71.12;102448.78;5985576;28;20122;-70
2022/03/23 03:38:13;;;;;;;21.63;7.57;;;;;;;1.28;71.42;102460.47;5996000;28;20039;-71
2022/03/23 03:41:09;;;;;;;20.02;8.00;;;;;;;1.43;71.80;102450.41;5976909;29;20414;-71
2022/03/23 03:44:05;;;;;;;19.75;7.97;;;;;;;1.52;70.89;102444.06;5977339;29;20073;-71
2022/03/23 03:47:00;;;;;;;22.23;8.40;;;;;;;1.58;71.64;102449.09;5974596;29;20047;-71
2022/03/23 03:49:55;;;;;;;17.43;7.77;;;;;;;1.52;72.24;102437.06;5979303;28;20031;-71
2022/03/23 03:52:50;;;;;;;21.33;7.83;;;;;;;1.39;71.06;102451.41;5976459;29;20027;-71
2022/03/23 03:55:46;;;;;;;27.60;8.63;;;;;;;1.23;71.42;102444.03;5978914;29;20526;-72
2022/03/23 03:58:41;;;;;;;21.90;9.23;;;;;;;1.34;72.12;102448.06;5969152;29;20043;-72
2022/03/23 04:01:36;;;;;;;25.17;9.63;;;;;;;1.26;72.58;102446.56;5965253;29;20057;-70
2022/03/23 04:04:32;;;;;;;21.37;8.57;;;;;;;1.41;71.66;102456.59;5978733;28;20510;-72
2022/03/23 04:07:27;;;;;;;24.17;9.17;;;;;;;1.06;72.11;102455.00;5977775;29;20316;-72
2022/03/23 04:10:23;;;;;;;20.13;7.90;;;;;;;0.72;72.75;102459.41;5975293;29;20082;-70
2022/03/23 04:13:19;;;;;;;22.08;8.15;;;;;;;0.44;72.45;102454.91;5973615;29;20515;-72
2022/03/23 04:16:14;;;;;;;22.53;8.13;;;;;;;0.07;74.12;102468.88;5978988;29;20038;-71
2022/03/23 04:19:09;;;;;;;24.47;8.23;;;;;;;0.61;73.82;102462.28;5974016;29;20683;-70
2022/03/23 04:22:04;;;;;;;19.93;9.00;;;;;;;0.30;74.44;102456.97;5974260;29;20542;-72
2022/03/23 04:25:00;;;;;;;19.27;7.60;;;;;;;0.05;74.16;102458.50;5981450;28;20031;-70
2022/03/23 04:27:57;;;;;;;26.33;9.03;;;;;;;-0.27;75.05;102458.38;6006191;28;20026;-70
2022/03/23 04:30:52;;;;;;;20.23;8.63;;;;;;;-0.16;76.36;102462.44;5980616;29;20804;-71
2022/03/23 04:33:47;;;;;;;24.47;8.67;;;;;;;-0.16;76.86;102466.78;5980883;29;20039;-69
2022/03/23 04:36:43;;;;;;;19.80;8.40;;;;;;;-0.17;76.38;102459.88;5980628;29;20069;-69
2022/03/23 04:39:38;;;;;;;23.10;8.87;;;;;;;-0.34;77.73;102467.22;5979414;28;20138;-70
2022/03/23 04:42:37;;;;;;;19.57;8.17;;;;;;;0.50;77.46;102467.78;5995079;28;20360;-71
2022/03/23 04:45:33;;;;;;;26.83;9.00;;;;;;;0.12;76.20;102467.00;5982466;29;20487;-70
2022/03/23 04:48:28;;;;;;;20.60;8.38;;;;;;;-0.26;76.94;102466.16;5978889;29;20039;-69
2022/03/23 04:51:23;;;;;;;21.50;8.03;;;;;;;-0.46;78.45;102475.31;5981375;29;20053;-69
2022/03/23 04:54:19;;;;;;;21.57;8.80;;;;;;;-0.09;79.29;102469.25;5972046;28;20534;-70
2022/03/23 04:57:14;;;;;;;23.70;9.10;;;;;;;0.22;79.01;102473.75;5977373;28;20283;-70
2022/03/23 05:00:13;;;;;;;23.23;9.07;;;;;;;0.36;79.12;102471.63;6004862;28;20035;-69
2022/03/23 05:03:08;;;;;;;19.42;7.90;;;;;;;0.25;77.84;102484.06;5982049;29;20031;-70
2022/03/23 05:06:04;;;;;;;22.75;8.38;;;;;;;-0.31;78.51;102482.78;5981414;28;20031;-70
2022/03/23 05:08:59;;;;;;;23.77;9.55;;;;;;;-0.39;79.03;102480.34;5981118;29;20073;-69
2022/03/23 05:11:54;;;;;;;18.77;8.97;;;;;;;-0.43;79.01;102483.91;5980979;29;20090;-69
2022/03/23 05:14:50;;;;;;;19.23;8.40;;;;;;;-0.64;79.04;102486.97;5981811;28;20082;-68
2022/03/23 05:17:45;;;;;;;23.50;8.77;;;;;;;-0.85;79.13;102493.47;6005123;28;20050;-69
2022/03/23 05:20:41;;;;;;;27.17;9.23;;;;;;;-1.09;79.58;102493.94;5990642;28;20098;-70
2022/03/23 05:23:37;;;;;;;20.27;8.50;;;;;;;-1.31;80.74;102490.88;5992978;28;20077;-69
2022/03/23 05:26:32;;;;;;;25.13;9.93;;;;;;;-1.16;80.96;102496.66;5984078;28;20287;-69
2022/03/23 05:29:27;;;;;;;23.80;8.83;;;;;;;-0.95;81.86;102496.28;5981654;29;20537;-69
2022/03/23 05:32:23;;;;;;;24.07;8.30;;;;;;;-1.02;81.17;102497.25;5975687;28;20842;-69
2022/03/23 05:35:18;;;;;;;22.37;8.67;;;;;;;-0.63;82.02;102499.09;5969923;28;20479;-69
2022/03/23 05:38:13;;;;;;;21.10;8.27;;;;;;;-0.10;82.14;102493.59;5973194;29;20063;-69
2022/03/23 05:41:09;;;;;;;23.88;8.85;;;;;;;0.57;80.28;102497.22;5972911;29;20107;-69
2022/03/23 05:44:05;;;;;;;22.50;9.50;;;;;;;0.76;78.64;102493.19;5979583;29;20047;-70
2022/03/23 05:47:00;;;;;;;24.50;9.95;;;;;;;1.01;77.53;102494.28;5976145;28;20491;-69
2022/03/23 05:49:56;;;;;;;19.35;8.13;;;;;;;1.34;74.46;102492.50;5978318;29;20035;-68
2022/03/23 05:52:51;;;;;;;20.70;8.43;;;;;;;1.86;71.42;102483.97;5976403;29;20070;-69
2022/03/23 05:55:46;;;;;;;20.13;7.67;;;;;;;2.28;69.62;102487.84;5996403;28;20105;-68
2022/03/23 05:58:41;;;;;;;17.97;7.57;;;;;;;2.71;68.18;102491.66;5977548;28;20090;-69
2022/03/23 06:01:37;;;;;;;24.27;7.87;;;;;;;3.02;66.19;102489.69;5978385;29;20034;-67
2022/03/23 06:04:32;;;;;;;19.90;8.67;;;;;;;3.41;65.09;102488.25;5985140;28;20027;-69
2022/03/23 06:07:27;;;;;;;18.07;8.80;;;;;;;3.22;64.60;102492.44;5978996;29;20474;-68
2022/03/23 06:10:23;;;;;;;21.87;9.67;;;;;;;2.78;66.71;102495.78;5978914;28;20283;-69
2022/03/23 06:13:18;;;;;;;19.43;8.97;;;;;;;2.95;66.97;102496.91;5979707;28;20102;-70
2022/03/23 06:16:14;;;;;;;18.13;8.73;;;;;;;2.92;65.64;102493.53;5985292;28;20286;-70
2022/03/23 06:19:10;;;;;;;25.85;9.77;;;;;;;3.47;65.73;102498.53;5980470;29;20035;-69
2022/03/23 06:22:05;;;;;;;19.25;8.50;;;;;;;3.42;64.67;102499.59;5978001;29;20043;-70
2022/03/23 06:25:01;;;;;;;22.13;9.67;;;;;;;3.92;64.16;102497.66;5979913;29;20090;-70
2022/03/23 06:27:56;;;;;;;17.63;8.47;;;;;;;4.93;61.66;102500.50;5976323;29;20086;-69
2022/03/23 06:30:51;;;;;;;24.93;9.63;;;;;;;4.92;59.21;102496.16;5976385;29;20280;-69
2022/03/23 06:33:47;;;;;;;22.10;9.77;;;;;;;4.94;58.37;102507.47;5979062;29;20055;-69
2022/03/23 06:36:42;;;;;;;23.77;9.53;;;;;;;5.27;57.72;102500.75;5978406;29;20414;-70
2022/03/23 06:39:37;;;;;;;18.47;9.37;;;;;;;5.43;57.19;102500.91;5979776;29;20063;-71
2022/03/23 06:42:33;;;;;;;23.03;9.77;;;;;;;5.84;58.78;102500.69;5977719;29;20070;-71
2022/03/23 06:45:29;;;;;;;24.60;9.70;;;;;;;5.94;55.16;102495.91;5981332;28;20313;-71
2022/03/23 06:48:24;;;;;;;21.90;10.23;;;;;;;5.69;54.45;102501.41;5992135;28;20132;-73
2022/03/23 06:51:20;;;;;;;20.30;10.20;;;;;;;5.82;54.58;102494.66;5979011;29;20035;-71
2022/03/23 06:54:17;;;;;;;22.63;10.40;;;;;;;6.35;52.97;102493.91;5981648;28;20365;-72
2022/03/23 06:57:13;;;;;;;22.00;9.45;;;;;;;6.44;52.44;102488.19;5982974;28;20290;-71
2022/03/23 07:00:15;;;;;;;20.45;10.27;;;;;;;6.71;51.48;102496.50;5975435;28;20114;-71
2022/03/23 07:03:10;;;;;;;21.13;10.52;;;;;;;6.54;52.38;102497.34;5976472;29;20082;-71
2022/03/23 07:06:06;;;;;;;25.57;10.47;;;;;;;6.48;52.54;102497.63;5974832;28;20039;-70
2022/03/23 07:12:17;;;;;;;;;;;;;;;6.54;52.37;102498.19;5981592;28;20423;-70
2022/03/23 07:15:12;;;;;;;25.52;9.70;;;;;;;6.83;52.27;102503.78;5987305;28;19919;-70
2022/03/23 07:18:07;;;;;;;24.60;10.87;;;;;;;6.92;52.27;102496.25;5969765;29;20055;-70
2022/03/23 07:21:04;;;;;;;24.03;9.90;;;;;;;7.09;53.50;102498.84;5973043;28;20784;-71
2022/03/23 07:23:59;;;;;;;20.70;10.85;;;;;;;7.51;53.99;102500.16;5986710;28;20035;-71
2022/03/23 07:26:54;;;;;;;22.30;10.03;;;;;;;7.55;54.80;102504.34;5974465;29;20050;-71
2022/03/23 07:29:50;;;;;;;24.50;10.73;;;;;;;7.47;55.46;102511.84;5978897;28;20388;-71
2022/03/23 07:32:45;;;;;;;24.13;11.10;;;;;;;7.44;53.91;102506.72;5972043;28;20065;-71
2022/03/23 07:35:40;;;;;;;24.37;11.07;;;;;;;7.20;53.96;102507.06;5975010;28;20278;-70
2022/03/23 07:38:36;;;;;;;27.58;11.65;;;;;;;7.10;55.50;102513.75;5969230;28;20118;-71
2022/03/23 07:41:31;;;;;;;24.27;10.65;;;;;;;7.11;54.71;102504.06;5972338;29;20067;-71
2022/03/23 07:44:26;;;;;;;20.60;10.00;;;;;;;7.30;53.25;102511.88;5980998;28;20134;-70
2022/03/23 07:47:22;;;;;;;26.87;11.47;;;;;;;7.20;53.73;102514.97;5974467;29;20038;-71
2022/03/23 07:50:17;;;;;;;23.10;10.43;;;;;;;7.36;51.47;102511.56;5967791;28;20279;-71
2022/03/23 07:53:13;;;;;;;25.17;9.70;;;;;;;7.62;50.27;102516.28;5971802;29;20054;-71
2022/03/23 07:56:08;;;;;;;23.27;10.45;;;;;;;7.96;51.02;102515.31;5975647;28;20274;-70
2022/03/23 07:59:04;;;;;;;26.53;10.70;;;;;;;8.15;50.47;102514.16;5988435;28;20521;-72
2022/03/23 08:01:59;;;;;;;23.60;10.52;;;;;;;8.26;50.63;102517.06;5971625;29;20035;-72
2022/03/23 08:04:54;;;;;;;23.20;11.13;;;;;;;8.44;50.15;102511.72;5974411;28;20067;-71
2022/03/23 08:07:50;;;;;;;26.70;10.33;;;;;;;8.70;49.21;102511.03;5974785;28;20047;-71
2022/03/23 08:10:45;;;;;;;20.47;9.83;;;;;;;8.59;48.15;102514.31;5965368;29;20035;-70
2022/03/23 08:13:41;;;;;;;21.70;10.60;;;;;;;8.98;46.05;102519.91;5977843;28;20035;-72
2022/03/23 08:16:36;;;;;;;23.48;11.18;;;;;;;8.99;45.42;102520.78;5983249;28;20036;-73
2022/03/23 08:19:31;;;;;;;21.47;10.30;;;;;;;9.27;44.10;102520.81;5972942;29;20487;-72
2022/03/23 08:22:27;;;;;;;25.80;10.73;;;;;;;9.72;43.66;102516.28;5984771;28;20031;-72
2022/03/23 08:25:22;;;;;;;22.48;10.77;;;;;;;10.10;42.67;102517.34;5974910;29;20298;-73
2022/03/23 08:28:18;;;;;;;23.90;10.73;;;;;;;10.82;41.07;102510.84;5979440;29;20070;-70
2022/03/23 08:31:13;;;;;;;20.27;10.32;;;;;;;11.02;39.82;102503.22;5977220;29;20063;-70
2022/03/23 08:34:09;;;;;;;21.38;11.13;;;;;;;11.11;40.91;102510.56;5956619;29;20098;-73
2022/03/23 08:37:04;;;;;;;23.42;10.25;;;;;;;10.92;39.46;102514.56;5979911;29;20046;-73
2022/03/23 08:39:59;;;;;;;24.73;10.70;;;;;;;11.02;41.57;102508.53;5974212;29;20042;-71
2022/03/23 08:42:57;;;;;;;20.83;10.48;;;;;;;11.14;40.11;102515.63;5979555;29;20083;-72
2022/03/23 08:45:52;;;;;;;25.25;11.60;;;;;;;11.32;42.34;102510.88;5982156;28;20395;-71
2022/03/23 08:48:49;;;;;;;24.70;11.77;;;;;;;11.30;42.99;102508.34;5981772;29;20047;-70
2022/03/23 08:51:44;;;;;;;23.58;11.27;;;;;;;11.51;43.51;102505.97;5981085;28;20358;-72
2022/03/23 08:54:39;;;;;;;27.43;11.03;;;;;;;11.60;43.17;102512.44;5976026;28;20050;-71
2022/03/23 08:57:36;;;;;;;25.00;10.93;;;;;;;11.52;42.99;102506.81;5979827;29;20439;-73
2022/03/23 09:00:31;;;;;;;27.98;11.50;;;;;;;11.49;43.28;102513.19;5981444;29;20114;-70
2022/03/23 09:03:26;;;;;;;23.00;11.20;;;;;;;11.79;43.59;102507.56;5976854;28;20035;-71
2022/03/23 09:06:22;;;;;;;24.00;11.13;;;;;;;11.93;41.74;102502.06;5970899;28;20478;-71
2022/03/23 09:09:17;;;;;;;26.73;11.30;;;;;;;12.17;41.79;102507.44;5970727;28;20118;-70
2022/03/23 09:12:12;;;;;;;21.47;11.00;;;;;;;12.27;40.87;102497.81;5978266;29;20035;-73
2022/03/23 09:15:10;;;;;;;20.60;10.18;;;;;;;12.48;40.60;102498.88;5973552;29;20035;-70
2022/03/23 09:18:07;;;;;;;21.55;10.45;;;;;;;12.77;39.34;102502.03;5979738;29;20057;-70
2022/03/23 09:21:03;;;;;;;20.40;11.40;;;;;;;13.00;37.27;102501.97;5969185;29;20489;-73
2022/03/23 09:23:59;;;;;;;28.50;12.55;;;;;;;13.07;37.82;102505.88;5984702;28;20035;-70
2022/03/23 09:26:55;;;;;;;19.52;10.18;;;;;;;13.60;36.09;102495.50;5976770;29;20039;-72
2022/03/23 09:29:51;;;;;;;22.50;11.75;;;;;;;12.88;36.73;102496.75;5980553;29;20406;-72
2022/03/23 09:32:48;;;;;;;22.08;10.55;;;;;;;13.01;37.70;102493.03;5977806;29;20034;-71
2022/03/23 09:35:43;;;;;;;20.77;10.68;;;;;;;13.46;36.32;102495.75;5973985;29;20478;-72
2022/03/23 09:38:39;;;;;;;22.27;11.27;;;;;;;13.83;34.33;102496.34;5981662;28;20046;-72
2022/03/23 09:41:34;;;;;;;22.43;11.10;;;;;;;13.47;34.27;102495.63;5975234;29;20770;-73
2022/03/23 09:44:30;;;;;;;22.75;11.18;;;;;;;13.68;34.78;102498.41;5977980;29;20031;-73
2022/03/23 09:47:26;;;;;;;22.08;11.18;;;;;;;13.86;35.29;102496.94;5954004;29;20428;-73
2022/03/23 09:50:24;;;;;;;21.13;11.32;;;;;;;13.79;35.13;102490.41;5976621;28;20043;-71
2022/03/23 09:53:22;;;;;;;21.35;10.70;;;;;;;14.39;33.94;102481.91;5976503;28;20031;-73
2022/03/23 09:56:18;;;;;;;28.05;12.45;;;;;;;14.58;33.03;102483.91;5975188;28;20043;-74
2022/03/23 09:59:13;;;;;;;22.23;11.52;;;;;;;14.48;32.71;102486.50;5972690;29;20060;-72
2022/03/23 10:02:28;;;;;;;23.25;11.18;;;;;;;14.46;33.73;102490.28;5979312;28;20520;-74
2022/03/23 10:05:45;;;;;;;20.33;10.80;;;;;;;15.03;32.05;102490.69;5973672;28;20038;-72
2022/03/23 10:09:15;;;;;;;19.15;9.98;;;;;;;14.94;29.38;102483.47;5979948;29;20039;-72
2022/03/23 10:12:44;;;;;;;22.27;10.45;;;;;;;15.34;29.67;102484.41;5986692;28;20119;-73
2022/03/23 10:16:04;;;;;;;20.63;10.25;;;;;;;15.09;29.46;102479.47;5974922;29;20039;-73
2022/03/23 10:19:00;;;;;;;20.58;10.35;;;;;;;15.43;29.01;102477.41;5984989;28;20067;-72
2022/03/23 10:22:07;;;;;;;23.60;11.32;;;;;;;14.99;29.75;102473.22;5979707;28;20583;-73
2022/03/23 10:25:08;;;;;;;24.23;10.82;;;;;;;15.39;29.76;102475.97;5983769;28;20031;-72
2022/03/23 10:28:11;;;;;;;19.77;10.27;;;;;;;15.63;28.92;102468.50;5981119;28;20059;-74
2022/03/23 10:31:17;;;;;;;23.20;11.05;;;;;;;15.87;28.79;102471.66;5982334;28;20115;-72
2022/03/23 10:34:13;;;;;;;24.48;11.50;;;;;;;15.71;30.01;102470.50;5975387;29;20046;-71
2022/03/23 10:37:10;;;;;;;21.53;10.47;;;;;;;15.89;30.18;102468.84;5979420;29;20039;-73
2022/03/23 10:40:08;;;;;;;23.02;11.82;;;;;;;15.67;30.71;102469.06;5974740;29;20486;-73
2022/03/23 10:43:04;;;;;;;21.38;11.70;;;;;;;15.78;30.04;102471.66;5977315;28;20049;-74
2022/03/23 10:46:10;;;;;;;22.83;12.37;;;;;;;16.12;30.76;102464.94;5979553;29;20074;-71
2022/03/23 10:49:06;;;;;;;20.92;11.32;;;;;;;16.43;30.19;102463.84;5974513;28;20087;-71
2022/03/23 10:52:13;;;;;;;22.08;11.73;;;;;;;16.24;29.95;102457.63;5981660;28;20047;-72
2022/03/23 10:55:10;;;;;;;21.00;11.68;;;;;;;16.73;29.56;102453.97;5976777;29;20399;-73
2022/03/23 10:58:05;;;;;;;21.95;11.65;;;;;;;16.72;29.42;102458.50;5979269;28;20508;-71
2022/03/23 11:01:08;;;;;;;26.92;11.75;;;;;;;16.75;29.59;102457.34;5982839;28;20043;-74
2022/03/23 11:04:07;;;;;;;21.40;10.65;;;;;;;16.94;28.95;102446.59;5975851;29;20043;-73
2022/03/23 11:07:03;;;;;;;19.58;10.50;;;;;;;17.38;28.77;102451.25;5971326;29;20082;-73
2022/03/23 11:16:35;;;;;;;19.75;11.30;;;;;;;17.54;28.55;102440.75;5975353;29;20402;-71
2022/03/23 11:19:31;;;;;;;23.33;11.07;;;;;;;17.79;28.53;102434.69;5973289;28;20039;-72
2022/03/23 11:22:26;;;;;;;23.63;11.15;;;;;;;17.84;26.88;102435.09;5977466;29;20486;-73
2022/03/23 11:25:21;;;;;;;22.33;11.33;;;;;;;18.03;27.10;102444.00;5978246;28;20477;-72
2022/03/23 11:28:18;;;;;;;23.83;11.50;;;;;;;17.67;28.08;102430.53;5972307;28;20041;-74
2022/03/23 11:31:17;;;;;;;18.95;10.75;;;;;;;17.52;27.13;102437.38;5966788;28;20282;-72
2022/03/23 11:34:18;;;;;;;21.58;11.48;;;;;;;17.74;27.82;102437.00;5981720;28;20027;-72
2022/03/23 11:37:13;;;;;;;;;;;;;;;17.85;27.22;102434.06;5983121;28;20039;-73
2022/03/23 11:40:09;;;;;;;20.53;12.07;;;;;;;18.13;26.37;102431.34;5973983;29;19925;-70
2022/03/23 11:43:05;;;;;;;21.27;11.13;;;;;;;18.26;25.24;102429.13;5981757;29;20586;-73
2022/03/23 11:46:01;;;;;;;20.63;11.10;;;;;;;18.37;25.30;102428.91;5967331;28;20031;-72
2022/03/23 11:49:23;;;;;;;22.00;11.38;;;;;;;18.20;24.46;102429.75;5982840;28;20036;-75
2022/03/23 11:52:42;;;;;;;21.90;11.93;;;;;;;18.00;25.68;102425.50;5956646;28;20088;-73
2022/03/23 11:55:40;;;;;;;23.48;12.50;;;;;;;18.16;25.76;102420.28;5989270;28;20035;-71
2022/03/23 11:58:37;;;;;;;21.63;12.10;;;;;;;18.32;25.55;102421.28;5963106;28;20050;-70
2022/03/23 12:01:32;;;;;;;23.13;12.32;;;;;;;18.43;25.93;102422.88;5982465;29;20087;-71
2022/03/23 12:04:28;;;;;;;25.33;11.30;;;;;;;18.61;26.13;102412.16;5982749;28;20545;-73
2022/03/23 12:07:24;;;;;;;22.95;11.80;;;;;;;18.60;24.96;102408.63;5982680;29;20035;-72
2022/03/23 12:10:24;;;;;;;22.85;12.38;;;;;;;18.12;25.38;102394.75;5974228;28;20085;-73
2022/03/23 12:13:23;;;;;;;22.38;11.07;;;;;;;18.75;25.48;102395.47;5986522;28;20031;-74
2022/03/23 12:16:19;;;;;;;24.30;11.90;;;;;;;18.61;26.12;102391.50;5982481;29;20031;-73
2022/03/23 12:19:28;;;;;;;19.60;10.70;;;;;;;18.82;24.45;102386.59;5982224;28;20046;-74
2022/03/23 12:22:32;;;;;;;21.08;10.15;;;;;;;18.79;22.83;102391.44;6003701;28;20081;-73
2022/03/23 12:25:39;;;;;;;22.80;12.93;;;;;;;18.78;23.21;102390.59;5989511;28;20050;-71
2022/03/23 12:29:16;;;;;;;21.25;10.93;;;;;;;18.89;23.31;102382.25;5982013;29;20487;-72
2022/03/23 12:32:13;;;;;;;18.58;10.80;;;;;;;18.59;23.51;102385.44;5981654;28;20046;-70
2022/03/23 12:35:08;;;;;;;21.58;10.45;;;;;;;18.47;22.78;102378.59;5980842;29;20047;-71
2022/03/23 12:38:15;;;;;;;18.23;10.27;;;;;;;18.54;23.07;102370.78;5982429;29;20376;-74
2022/03/23 12:41:11;;;;;;;18.55;10.27;;;;;;;18.83;22.97;102376.69;5981569;29;20114;-71
2022/03/23 12:44:10;;;;;;;17.63;9.90;;;;;;;19.18;22.73;102378.38;5979830;28;20464;-73
2022/03/23 12:47:20;;;;;;;20.35;10.05;;;;;;;19.52;22.10;102379.22;6003583;28;20034;-75
2022/03/23 13:00:10;;;;;;;19.55;10.00;;;;;;;19.23;21.06;102354.53;5997365;28;20035;-72
2022/03/23 13:03:05;;;;;;;16.17;9.75;;;;;;;18.96;20.77;102356.44;5969433;28;20031;-73
2022/03/23 13:06:00;;;;;;;17.73;10.27;;;;;;;18.95;21.55;102348.53;5981998;28;20033;-73
2022/03/23 13:08:55;;;;;;;16.50;9.93;;;;;;;18.68;21.25;102346.88;5981247;29;20042;-71
2022/03/23 13:11:56;;;;;;;19.97;9.87;;;;;;;18.97;20.59;102349.19;5981098;29;20057;-74
2022/03/23 13:14:51;;;;;;;16.02;9.90;;;;;;;18.87;19.93;102343.94;5976762;28;20112;-73
2022/03/23 13:17:48;;;;;;;21.27;9.77;;;;;;;18.85;20.04;102348.66;5995259;28;20387;-73
2022/03/23 13:20:51;;;;;;;15.85;9.27;;;;;;;18.92;20.47;102338.94;5979745;28;20275;-74
2022/03/23 13:23:53;;;;;;;19.00;9.70;;;;;;;19.47;20.68;102339.34;5999237;28;20038;-72
2022/03/23 13:26:50;;;;;;;18.02;11.07;;;;;;;19.50;20.71;102341.72;5981474;29;20042;-73
2022/03/23 13:29:45;;;;;;;17.08;9.90;;;;;;;18.81;20.46;102341.91;5980663;28;20034;-71
2022/03/23 13:32:46;;;;;;;16.90;10.37;;;;;;;19.51;20.68;102334.50;5980517;28;20035;-73
2022/03/23 13:35:45;;;;;;;16.63;10.43;;;;;;;19.76;20.31;102333.50;5978566;28;20027;-74
2022/03/23 13:38:46;;;;;;;15.23;10.13;;;;;;;19.32;20.22;102323.97;5981173;29;20410;-71
2022/03/23 13:44:57;;;;;;;16.55;10.38;;;;;;;19.31;20.49;102331.19;5981248;29;20034;-74
2022/03/23 13:47:52;;;;;;;18.45;9.98;;;;;;;18.59;19.94;102323.63;5979036;29;20067;-73
2022/03/23 13:50:52;;;;;;;16.73;10.20;;;;;;;19.20;20.36;102319.88;5973813;29;20058;-72
2022/03/23 13:53:48;;;;;;;19.02;10.98;;;;;;;19.21;21.23;102321.59;5987947;28;20036;-72
2022/03/23 13:56:45;;;;;;;21.10;11.27;;;;;;;19.03;20.53;102319.81;5980141;28;20046;-72
2022/03/23 13:59:40;;;;;;;21.33;12.10;;;;;;;18.60;22.02;102314.56;5972275;29;20118;-71
2022/03/23 14:02:36;;;;;;;21.73;11.83;;;;;;;18.17;22.35;102301.16;5984323;28;20046;-72
2022/03/23 14:05:35;;;;;;;18.00;11.07;;;;;;;18.82;21.08;102311.34;5982951;28;20019;-72